createdAt,value
2018-05-03T00:00:05.618Z,80.54
2018-05-03T00:01:05.629Z,80.64
2018-05-03T00:02:05.707Z,79.63
2018-05-03T00:03:05.671Z,80.16
2018-05-03T00:04:05.683Z,80.07
2018-05-03T00:05:05.708Z,79.44
2018-05-03T00:06:05.711Z,79.78
2018-05-03T00:07:05.748Z,80.64
2018-05-03T00:08:05.845Z,80.92
2018-05-03T00:09:05.777Z,82.41
2018-05-03T00:10:05.783Z,82.17
2018-05-03T00:11:05.872Z,82.12
2018-05-03T00:12:05.884Z,82.31
2018-05-03T00:13:05.875Z,82.89
2018-05-03T00:14:05.855Z,83.45
2018-05-03T00:15:05.883Z,83.07
2018-05-03T00:16:05.893Z,83.65
2018-05-03T00:17:05.908Z,83.84
2018-05-03T00:18:05.952Z,84.65
2018-05-03T00:19:05.942Z,85.03
2018-05-03T00:20:05.966Z,85.03
2018-05-03T00:21:05.980Z,84.79
2018-05-03T00:22:06.084Z,84.31
2018-05-03T00:23:06.022Z,83.07
2018-05-03T00:24:06.040Z,82.31
2018-05-03T00:25:06.093Z,82.60
2018-05-03T00:26:06.145Z,82.50
2018-05-03T00:27:06.088Z,82.60
2018-05-03T00:28:06.103Z,82.31
2018-05-03T00:29:06.130Z,82.60
2018-05-03T00:30:06.177Z,82.31
2018-05-03T00:31:06.244Z,82.60
2018-05-03T00:32:06.208Z,82.12
2018-05-03T00:33:06.237Z,82.60
2018-05-03T00:34:06.217Z,82.60
2018-05-03T00:35:06.234Z,82.21
2018-05-03T00:36:06.300Z,82.69
2018-05-03T00:37:06.295Z,82.60
2018-05-03T00:38:06.285Z,82.50
2018-05-03T00:39:06.321Z,82.12
2018-05-03T00:40:06.354Z,82.21
2018-05-03T00:41:06.343Z,82.56
2018-05-03T00:42:06.362Z,82.60
2018-05-03T00:43:06.397Z,82.21
2018-05-03T00:44:06.386Z,82.89
2018-05-03T00:45:06.418Z,83.61
2018-05-03T00:46:06.419Z,85.32
2018-05-03T00:47:06.507Z,85.75
2018-05-03T00:48:06.447Z,85.94
2018-05-03T00:49:06.492Z,86.04
2018-05-03T00:50:06.474Z,86.27
2018-05-03T00:51:06.539Z,86.27
2018-05-03T00:52:06.521Z,84.94
2018-05-03T00:53:06.535Z,83.98
2018-05-03T00:54:06.561Z,83.61
2018-05-03T00:55:06.572Z,83.17
2018-05-03T00:56:06.588Z,82.60
2018-05-03T00:57:06.637Z,82.50
2018-05-03T00:58:06.615Z,82.12
2018-05-03T00:59:06.662Z,82.41
2018-05-03T01:00:06.653Z,82.79
2018-05-03T01:01:06.674Z,82.08
2018-05-03T01:02:06.687Z,82.21
2018-05-03T01:03:06.705Z,82.12
2018-05-03T01:04:06.723Z,82.27
2018-05-03T01:05:06.742Z,82.31
2018-05-03T01:06:06.769Z,82.69
2018-05-03T01:07:06.780Z,82.03
2018-05-03T01:08:06.824Z,82.12
2018-05-03T01:09:06.815Z,82.31
2018-05-03T01:10:06.840Z,82.31
2018-05-03T01:11:06.847Z,82.12
2018-05-03T01:12:06.874Z,82.41
2018-05-03T01:13:06.894Z,82.03
2018-05-03T01:14:06.939Z,82.03
2018-05-03T01:15:06.975Z,82.03
2018-05-03T01:16:06.938Z,82.31
2018-05-03T01:17:06.981Z,82.21
2018-05-03T01:18:06.972Z,82.21
2018-05-03T01:19:06.986Z,82.12
2018-05-03T01:20:07.008Z,82.60
2018-05-03T01:21:07.033Z,82.41
2018-05-03T01:22:07.043Z,82.31
2018-05-03T01:23:07.078Z,82.69
2018-05-03T01:24:07.089Z,82.50
2018-05-03T01:25:07.125Z,82.03
2018-05-03T01:26:07.115Z,82.21
2018-05-03T01:27:07.132Z,82.93
2018-05-03T01:28:07.152Z,83.51
2018-05-03T01:29:07.161Z,83.80
2018-05-03T01:30:07.201Z,84.36
2018-05-03T01:31:07.196Z,84.65
2018-05-03T01:32:07.238Z,83.89
2018-05-03T01:33:07.282Z,83.89
2018-05-03T01:34:07.287Z,84.75
2018-05-03T01:35:07.268Z,85.66
2018-05-03T01:36:07.287Z,85.66
2018-05-03T01:37:07.308Z,86.27
2018-05-03T01:38:07.314Z,85.66
2018-05-03T01:39:07.350Z,86.13
2018-05-03T01:40:07.350Z,85.60
2018-05-03T01:41:07.370Z,84.94
2018-05-03T01:42:07.379Z,85.56
2018-05-03T01:43:07.398Z,85.56
2018-05-03T01:44:07.420Z,85.70
2018-05-03T01:45:07.455Z,84.75
2018-05-03T01:46:07.472Z,83.98
2018-05-03T01:47:07.476Z,84.84
2018-05-03T01:48:07.492Z,85.37
2018-05-03T01:49:07.519Z,86.13
2018-05-03T01:50:07.527Z,85.66
2018-05-03T01:51:07.544Z,86.61
2018-05-03T01:52:07.564Z,86.70
2018-05-03T01:53:07.599Z,86.13
2018-05-03T01:54:07.685Z,85.08
2018-05-03T01:55:07.616Z,85.56
2018-05-03T01:56:07.634Z,85.41
2018-05-03T01:57:07.649Z,84.99
2018-05-03T01:58:07.681Z,84.65
2018-05-03T01:59:07.683Z,84.17
2018-05-03T02:00:07.767Z,85.37
2018-05-03T02:01:07.799Z,85.85
2018-05-03T02:02:07.734Z,85.66
2018-05-03T02:03:07.767Z,85.56
2018-05-03T02:04:07.775Z,85.56
2018-05-03T02:05:07.807Z,84.94
2018-05-03T02:06:07.833Z,84.84
2018-05-03T02:07:07.824Z,84.36
2018-05-03T02:08:07.849Z,84.46
2018-05-03T02:09:07.854Z,84.08
2018-05-03T02:10:07.885Z,84.89
2018-05-03T02:11:07.900Z,84.08
2018-05-03T02:12:07.912Z,83.70
2018-05-03T02:13:07.932Z,83.98
2018-05-03T02:14:07.992Z,83.51
2018-05-03T02:15:07.960Z,83.22
2018-05-03T02:16:07.996Z,83.13
2018-05-03T02:17:08.008Z,83.03
2018-05-03T02:18:08.022Z,83.03
2018-05-03T02:19:08.078Z,82.93
2018-05-03T02:20:08.037Z,82.93
2018-05-03T02:21:08.061Z,83.13
2018-05-03T02:22:08.108Z,82.56
2018-05-03T02:23:08.101Z,82.37
2018-05-03T02:24:08.111Z,82.56
2018-05-03T02:25:08.137Z,83.22
2018-05-03T02:26:08.142Z,83.75
2018-05-03T02:27:08.160Z,83.75
2018-05-03T02:28:08.250Z,83.98
2018-05-03T02:29:08.255Z,84.17
2018-05-03T02:30:08.229Z,83.32
2018-05-03T02:31:08.236Z,82.84
2018-05-03T02:32:08.329Z,82.93
2018-05-03T02:33:08.316Z,82.37
2018-05-03T02:34:08.318Z,82.65
2018-05-03T02:35:08.329Z,82.56
2018-05-03T02:36:08.324Z,82.46
2018-05-03T02:37:08.339Z,82.37
2018-05-03T02:38:08.366Z,82.27
2018-05-03T02:39:08.454Z,82.37
2018-05-03T02:40:08.384Z,82.27
2018-05-03T02:41:08.409Z,82.56
2018-05-03T02:42:08.442Z,82.46
2018-05-03T02:43:08.436Z,82.46
2018-05-03T02:44:08.455Z,82.84
2018-05-03T02:45:08.476Z,82.18
2018-05-03T02:46:08.504Z,82.46
2018-05-03T02:47:08.516Z,82.37
2018-05-03T02:48:08.534Z,82.37
2018-05-03T02:49:08.590Z,82.42
2018-05-03T02:50:08.593Z,83.75
2018-05-03T02:51:08.641Z,83.28
2018-05-03T02:52:08.600Z,83.71
2018-05-03T02:53:08.625Z,85.24
2018-05-03T02:54:08.636Z,85.14
2018-05-03T02:55:08.663Z,85.71
2018-05-03T02:56:08.683Z,86.28
2018-05-03T02:57:08.752Z,85.99
2018-05-03T02:58:08.722Z,86.61
2018-05-03T02:59:08.766Z,86.66
2018-05-03T03:00:08.739Z,87.09
2018-05-03T03:01:08.754Z,86.18
2018-05-03T03:02:08.798Z,85.90
2018-05-03T03:03:08.806Z,85.52
2018-05-03T03:04:08.796Z,85.33
2018-05-03T03:05:08.817Z,86.09
2018-05-03T03:06:08.835Z,85.90
2018-05-03T03:07:08.852Z,85.24
2018-05-03T03:08:08.872Z,84.95
2018-05-03T03:09:08.907Z,84.38
2018-05-03T03:10:08.920Z,84.56
2018-05-03T03:11:08.948Z,84.66
2018-05-03T03:12:08.937Z,84.66
2018-05-03T03:13:08.959Z,84.66
2018-05-03T03:14:08.977Z,85.24
2018-05-03T03:15:09.010Z,85.14
2018-05-03T03:16:09.006Z,84.66
2018-05-03T03:17:09.096Z,83.71
2018-05-03T03:18:09.074Z,83.90
2018-05-03T03:19:09.057Z,84.09
2018-05-03T03:20:09.072Z,84.19
2018-05-03T03:21:09.089Z,83.81
2018-05-03T03:22:09.204Z,84.62
2018-05-03T03:23:09.119Z,85.28
2018-05-03T03:24:09.137Z,85.61
2018-05-03T03:25:09.157Z,85.14
2018-05-03T03:26:09.190Z,85.28
2018-05-03T03:27:09.251Z,86.33
2018-05-03T03:28:09.222Z,85.66
2018-05-03T03:29:09.223Z,85.95
2018-05-03T03:30:09.251Z,85.10
2018-05-03T03:31:09.277Z,85.00
2018-05-03T03:32:09.290Z,84.91
2018-05-03T03:33:09.291Z,85.47
2018-05-03T03:34:09.334Z,85.00
2018-05-03T03:35:09.331Z,84.91
2018-05-03T03:36:09.341Z,84.72
2018-05-03T03:37:09.353Z,84.91
2018-05-03T03:38:09.372Z,84.62
2018-05-03T03:39:09.412Z,84.43
2018-05-03T03:40:09.449Z,84.76
2018-05-03T03:41:09.441Z,84.47
2018-05-03T03:42:09.439Z,83.71
2018-05-03T03:43:09.457Z,83.71
2018-05-03T03:44:09.473Z,83.81
2018-05-03T03:45:09.534Z,84.00
2018-05-03T03:46:09.565Z,83.81
2018-05-03T03:47:09.535Z,83.42
2018-05-03T03:48:09.578Z,83.29
2018-05-03T03:49:09.561Z,85.00
2018-05-03T03:50:09.574Z,85.57
2018-05-03T03:51:09.682Z,85.47
2018-05-03T03:52:09.615Z,86.19
2018-05-03T03:53:09.741Z,86.86
2018-05-03T03:54:09.638Z,86.71
2018-05-03T03:55:09.673Z,86.99
2018-05-03T03:56:09.673Z,86.52
2018-05-03T03:57:09.691Z,86.43
2018-05-03T03:58:09.763Z,86.43
2018-05-03T03:59:09.748Z,86.33
2018-05-03T04:00:09.752Z,85.66
2018-05-03T04:01:09.763Z,85.95
2018-05-03T04:02:09.766Z,85.66
2018-05-03T04:03:09.808Z,85.10
2018-05-03T04:04:09.812Z,85.19
2018-05-03T04:05:09.822Z,85.19
2018-05-03T04:06:09.842Z,84.43
2018-05-03T04:07:09.856Z,84.91
2018-05-03T04:08:09.925Z,85.19
2018-05-03T04:09:09.886Z,84.43
2018-05-03T04:10:09.908Z,84.24
2018-05-03T04:11:09.937Z,83.76
2018-05-03T04:12:09.986Z,83.86
2018-05-03T04:13:09.972Z,84.43
2018-05-03T04:14:09.983Z,84.81
2018-05-03T04:15:10.004Z,84.24
2018-05-03T04:16:10.011Z,84.91
2018-05-03T04:17:10.056Z,85.66
2018-05-03T04:18:10.041Z,85.57
2018-05-03T04:19:10.060Z,85.47
2018-05-03T04:20:10.075Z,85.66
2018-05-03T04:21:10.091Z,85.00
2018-05-03T04:22:10.145Z,85.47
2018-05-03T04:23:10.135Z,86.05
2018-05-03T04:24:10.143Z,84.81
2018-05-03T04:25:10.182Z,85.47
2018-05-03T04:26:10.175Z,85.47
2018-05-03T04:27:10.264Z,85.24
2018-05-03T04:28:10.207Z,84.56
2018-05-03T04:29:10.248Z,85.19
2018-05-03T04:30:10.247Z,85.33
2018-05-03T04:31:10.288Z,85.04
2018-05-03T04:32:10.372Z,85.00
2018-05-03T04:33:10.299Z,85.04
2018-05-03T04:34:10.315Z,84.66
2018-05-03T04:35:10.333Z,84.56
2018-05-03T04:36:10.353Z,84.47
2018-05-03T04:37:10.372Z,84.38
2018-05-03T04:38:10.394Z,84.13
2018-05-03T04:39:10.406Z,82.99
2018-05-03T04:40:10.421Z,82.70
2018-05-03T04:41:10.438Z,82.51
2018-05-03T04:42:10.499Z,81.79
2018-05-03T04:43:10.488Z,80.36
2018-05-03T04:44:10.503Z,79.89
2018-05-03T04:45:10.508Z,78.88
2018-05-03T04:46:10.524Z,78.50
2018-05-03T04:47:10.548Z,78.31
2018-05-03T04:48:10.578Z,78.50
2018-05-03T04:49:10.591Z,77.93
2018-05-03T04:50:10.641Z,77.55
2018-05-03T04:51:10.602Z,77.74
2018-05-03T04:52:10.626Z,77.11
2018-05-03T04:53:10.662Z,77.01
2018-05-03T04:54:10.732Z,76.20
2018-05-03T04:55:10.740Z,75.34
2018-05-03T04:56:10.722Z,73.56
2018-05-03T04:57:10.744Z,73.12
2018-05-03T04:58:10.738Z,72.23
2018-05-03T04:59:10.883Z,71.46
2018-05-03T05:00:10.768Z,71.98
2018-05-03T05:01:10.787Z,71.46
2018-05-03T05:02:10.845Z,71.50
2018-05-03T05:03:10.826Z,70.48
2018-05-03T05:04:10.840Z,68.70
2018-05-03T05:05:10.898Z,67.59
2018-05-03T05:06:10.884Z,67.27
2018-05-03T05:07:10.979Z,67.40
2018-05-03T05:08:10.943Z,67.11
2018-05-03T05:09:10.991Z,66.73
2018-05-03T05:10:10.963Z,66.09
2018-05-03T05:11:10.994Z,65.42
2018-05-03T05:12:11.017Z,65.52
2018-05-03T05:13:11.096Z,65.87
2018-05-03T05:14:11.063Z,66.76
2018-05-03T05:15:11.084Z,65.45
2018-05-03T05:16:11.110Z,66.25
2018-05-03T05:17:11.105Z,68.70
2018-05-03T05:18:11.117Z,69.82
2018-05-03T05:19:11.167Z,71.15
2018-05-03T05:20:11.179Z,72.11
2018-05-03T05:21:11.186Z,71.92
2018-05-03T05:22:11.203Z,70.71
2018-05-03T05:23:11.380Z,71.25
2018-05-03T05:24:11.338Z,71.47
2018-05-03T05:25:11.282Z,70.56
2018-05-03T05:26:11.301Z,68.68
2018-05-03T05:27:11.320Z,67.63
2018-05-03T05:28:11.323Z,66.51
2018-05-03T05:29:11.355Z,66.19
2018-05-03T05:30:11.365Z,65.71
2018-05-03T05:31:11.388Z,65.14
2018-05-03T05:32:11.426Z,65.68
2018-05-03T05:33:11.433Z,67.21
2018-05-03T05:34:11.461Z,68.80
2018-05-03T05:35:11.496Z,68.93
2018-05-03T05:36:11.590Z,68.74
2018-05-03T05:37:11.525Z,67.40
2018-05-03T05:38:11.527Z,67.53
2018-05-03T05:39:11.548Z,66.09
2018-05-03T05:40:11.569Z,67.40
2018-05-03T05:41:11.595Z,68.61
2018-05-03T05:42:11.612Z,69.82
2018-05-03T05:43:11.860Z,71.53
2018-05-03T05:44:11.719Z,71.57
2018-05-03T05:45:11.685Z,69.21
2018-05-03T05:46:11.711Z,69.02
2018-05-03T05:47:11.720Z,67.97
2018-05-03T05:48:11.780Z,67.97
2018-05-03T05:49:11.789Z,68.90
2018-05-03T05:50:11.778Z,69.31
2018-05-03T05:51:11.899Z,67.53
2018-05-03T05:52:11.817Z,66.76
2018-05-03T05:53:11.912Z,66.96
2018-05-03T05:54:11.862Z,67.40
2018-05-03T05:55:11.898Z,67.43
2018-05-03T05:56:11.920Z,66.57
2018-05-03T05:57:11.923Z,66.25
2018-05-03T05:58:12.016Z,66.63
2018-05-03T05:59:11.956Z,66.16
2018-05-03T06:00:11.976Z,66.28
2018-05-03T06:01:12.044Z,66.96
2018-05-03T06:02:12.071Z,67.40
2018-05-03T06:03:12.048Z,67.40
2018-05-03T06:04:12.143Z,68.07
2018-05-03T06:05:12.087Z,68.07
2018-05-03T06:06:12.132Z,67.69
2018-05-03T06:07:12.182Z,67.11
2018-05-03T06:08:12.295Z,67.40
2018-05-03T06:09:12.156Z,67.59
2018-05-03T06:10:12.217Z,67.69
2018-05-03T06:11:12.197Z,68.64
2018-05-03T06:12:12.312Z,68.16
2018-05-03T06:13:12.242Z,67.88
2018-05-03T06:14:12.254Z,67.63
2018-05-03T06:15:12.270Z,67.88
2018-05-03T06:16:12.294Z,68.64
2018-05-03T06:17:12.403Z,69.02
2018-05-03T06:18:12.328Z,68.01
2018-05-03T06:19:12.354Z,68.20
2018-05-03T06:20:12.371Z,69.15
2018-05-03T06:21:12.555Z,68.87
2018-05-03T06:22:12.404Z,70.21
2018-05-03T06:23:12.437Z,68.94
2018-05-03T06:24:12.443Z,67.31
2018-05-03T06:25:12.515Z,66.29
2018-05-03T06:26:12.484Z,65.71
2018-05-03T06:27:12.534Z,65.42
2018-05-03T06:28:12.534Z,65.71
2018-05-03T06:29:12.608Z,66.00
2018-05-03T06:30:12.569Z,66.06
2018-05-03T06:31:12.589Z,67.02
2018-05-03T06:32:12.602Z,67.50
2018-05-03T06:33:12.644Z,66.45
2018-05-03T06:34:12.639Z,66.93
2018-05-03T06:35:12.662Z,66.64
2018-05-03T06:36:12.684Z,66.25
2018-05-03T06:37:12.730Z,66.93
2018-05-03T06:38:12.739Z,66.93
2018-05-03T06:39:12.740Z,66.83
2018-05-03T06:40:12.763Z,66.64
2018-05-03T06:41:12.805Z,66.93
2018-05-03T06:42:12.799Z,67.85
2018-05-03T06:43:12.832Z,68.42
2018-05-03T06:44:12.836Z,68.17
2018-05-03T06:45:12.947Z,67.88
2018-05-03T06:46:12.886Z,67.69
2018-05-03T06:47:12.913Z,66.45
2018-05-03T06:48:12.944Z,66.45
2018-05-03T06:49:12.986Z,66.58
2018-05-03T06:50:12.970Z,65.91
2018-05-03T06:51:13.012Z,65.33
2018-05-03T06:52:13.004Z,66.38
2018-05-03T06:53:13.046Z,65.65
2018-05-03T06:54:13.056Z,64.59
2018-05-03T06:55:13.068Z,64.15
2018-05-03T06:56:13.091Z,62.58
2018-05-03T06:57:13.126Z,59.95
2018-05-03T06:58:13.124Z,59.28
2018-05-03T06:59:13.143Z,56.74
2018-05-03T07:00:13.193Z,55.49
2018-05-03T07:01:13.199Z,54.36
2018-05-03T07:02:13.230Z,53.23
2018-05-03T07:03:13.305Z,52.40
2018-05-03T07:04:13.295Z,52.66
2018-05-03T07:05:13.275Z,52.78
2018-05-03T07:06:13.331Z,51.48
2018-05-03T07:07:13.367Z,49.87
2018-05-03T07:08:13.399Z,48.69
2018-05-03T07:09:13.369Z,49.55
2018-05-03T07:10:13.390Z,50.09
2018-05-03T07:11:13.412Z,51.21
2018-05-03T07:12:13.453Z,51.98
2018-05-03T07:13:13.491Z,51.14
2018-05-03T07:14:13.558Z,49.91
2018-05-03T07:15:13.551Z,51.48
2018-05-03T07:16:13.632Z,52.18
2018-05-03T07:17:13.581Z,51.43
2018-05-03T07:18:13.592Z,50.98
2018-05-03T07:19:13.599Z,49.37
2018-05-03T07:20:13.691Z,49.37
2018-05-03T07:21:13.669Z,49.17
2018-05-03T07:22:13.722Z,48.01
2018-05-03T07:23:13.703Z,49.22
2018-05-03T07:24:13.735Z,50.66
2018-05-03T07:25:13.757Z,50.93
2018-05-03T07:26:13.772Z,50.27
2018-05-03T07:27:13.798Z,49.70
2018-05-03T07:28:13.825Z,50.90
2018-05-03T07:29:13.865Z,53.38
2018-05-03T07:30:13.882Z,54.24
2018-05-03T07:31:14.072Z,53.92
2018-05-03T07:32:13.915Z,53.83
2018-05-03T07:33:13.968Z,54.99
2018-05-03T07:34:13.980Z,55.46
2018-05-03T07:35:14.003Z,54.31
2018-05-03T07:36:14.031Z,53.83
2018-05-03T07:37:14.042Z,54.43
2018-05-03T07:38:14.054Z,52.66
2018-05-03T07:39:14.101Z,50.47
2018-05-03T07:40:14.182Z,50.47
2018-05-03T07:41:14.138Z,50.27
2018-05-03T07:42:14.295Z,49.89
2018-05-03T07:43:14.164Z,50.37
2018-05-03T07:44:14.202Z,49.84
2018-05-03T07:45:14.304Z,48.71
2018-05-03T07:46:14.378Z,46.44
2018-05-03T07:47:14.269Z,45.96
2018-05-03T07:48:14.356Z,44.73
2018-05-03T07:49:14.376Z,43.47
2018-05-03T07:50:14.380Z,43.18
2018-05-03T07:51:14.364Z,43.23
2018-05-03T07:52:14.404Z,42.24
2018-05-03T07:53:14.415Z,43.18
2018-05-03T07:54:14.434Z,43.47
2018-05-03T07:55:14.469Z,43.37
2018-05-03T07:56:14.479Z,43.54
2018-05-03T07:57:14.509Z,45.79
2018-05-03T07:58:14.546Z,47.17
2018-05-03T07:59:14.601Z,47.92
2018-05-03T08:00:14.641Z,45.79
2018-05-03T08:01:14.610Z,42.18
2018-05-03T08:02:14.627Z,41.58
2018-05-03T08:03:14.661Z,41.41
2018-05-03T08:04:14.682Z,40.36
2018-05-03T08:05:14.705Z,39.32
2018-05-03T08:06:14.730Z,38.33
2018-05-03T08:07:14.761Z,38.81
2018-05-03T08:08:14.794Z,38.70
2018-05-03T08:09:14.814Z,39.01
2018-05-03T08:10:14.850Z,39.76
2018-05-03T08:11:14.862Z,37.94
2018-05-03T08:12:14.911Z,37.30
2018-05-03T08:13:14.917Z,36.76
2018-05-03T08:14:14.947Z,37.71
2018-05-03T08:15:15.010Z,38.64
2018-05-03T08:16:15.025Z,39.64
2018-05-03T08:17:15.024Z,40.23
2018-05-03T08:18:15.148Z,40.32
2018-05-03T08:19:15.082Z,39.57
2018-05-03T08:20:15.191Z,40.11
2018-05-03T08:21:15.120Z,40.84
2018-05-03T08:22:15.169Z,41.15
2018-05-03T08:23:15.234Z,41.25
2018-05-03T08:24:15.196Z,42.08
2018-05-03T08:25:15.233Z,42.10
2018-05-03T08:26:15.275Z,41.54
2018-05-03T08:27:15.271Z,41.48
2018-05-03T08:28:15.295Z,39.28
2018-05-03T08:29:15.321Z,40.75
2018-05-03T08:30:15.490Z,42.08
2018-05-03T08:31:15.369Z,42.66
2018-05-03T08:32:15.393Z,42.18
2018-05-03T08:33:15.430Z,42.18
2018-05-03T08:34:15.451Z,42.63
2018-05-03T08:35:15.469Z,44.59
2018-05-03T08:36:15.492Z,45.15
2018-05-03T08:37:15.557Z,45.87
2018-05-03T08:38:15.537Z,47.03
2018-05-03T08:39:15.593Z,47.87
2018-05-03T08:40:15.632Z,47.49
2018-05-03T08:41:15.604Z,47.68
2018-05-03T08:42:15.635Z,47.30
2018-05-03T08:43:15.653Z,45.64
2018-05-03T08:44:15.672Z,45.45
2018-05-03T08:45:15.702Z,43.23
2018-05-03T08:46:15.720Z,42.97
2018-05-03T08:47:15.741Z,42.32
2018-05-03T08:48:15.763Z,42.97
2018-05-03T08:49:15.789Z,41.60
2018-05-03T08:50:15.816Z,41.89
2018-05-03T08:51:15.864Z,41.70
2018-05-03T08:52:15.864Z,41.24
2018-05-03T08:53:15.884Z,41.26
2018-05-03T08:54:15.912Z,41.45
2018-05-03T08:55:15.930Z,41.72
2018-05-03T08:56:15.953Z,41.41
2018-05-03T08:57:16.041Z,42.16
2018-05-03T08:58:16.002Z,43.23
2018-05-03T08:59:16.008Z,42.97
2018-05-03T09:00:16.024Z,42.60
2018-05-03T09:01:16.078Z,42.12
2018-05-03T09:02:16.163Z,40.37
2018-05-03T09:03:16.096Z,40.83
2018-05-03T09:04:16.121Z,41.60
2018-05-03T09:05:16.150Z,40.78
2018-05-03T09:06:16.160Z,40.30
2018-05-03T09:07:16.277Z,39.43
2018-05-03T09:08:16.228Z,39.12
2018-05-03T09:09:16.223Z,39.43
2018-05-03T09:10:16.244Z,38.45
2018-05-03T09:11:16.269Z,37.76
2018-05-03T09:12:16.351Z,37.47
2018-05-03T09:13:16.384Z,38.02
2018-05-03T09:14:16.347Z,37.66
2018-05-03T09:15:16.374Z,38.45
2018-05-03T09:16:16.392Z,39.79
2018-05-03T09:17:16.478Z,40.28
2018-05-03T09:18:16.418Z,39.29
2018-05-03T09:19:16.479Z,39.49
2018-05-03T09:20:16.461Z,39.95
2018-05-03T09:21:16.519Z,41.02
2018-05-03T09:22:16.506Z,41.12
2018-05-03T09:23:16.565Z,40.18
2018-05-03T09:24:16.584Z,41.22
2018-05-03T09:25:16.595Z,41.12
2018-05-03T09:26:16.606Z,40.45
2018-05-03T09:27:16.740Z,41.24
2018-05-03T09:28:16.640Z,40.37
2018-05-03T09:29:16.690Z,38.93
2018-05-03T09:30:16.666Z,39.68
2018-05-03T09:31:16.779Z,41.14
2018-05-03T09:32:16.711Z,40.39
2018-05-03T09:33:16.838Z,40.51
2018-05-03T09:34:16.789Z,39.26
2018-05-03T09:35:16.784Z,37.70
2018-05-03T09:36:16.813Z,37.70
2018-05-03T09:37:16.820Z,38.18
2018-05-03T09:38:16.884Z,38.76
2018-05-03T09:39:16.892Z,38.66
2018-05-03T09:40:16.889Z,39.81
2018-05-03T09:41:16.922Z,39.83
2018-05-03T09:42:16.929Z,39.16
2018-05-03T09:43:16.955Z,38.29
2018-05-03T09:44:16.974Z,37.70
2018-05-03T09:45:17.050Z,38.28
2018-05-03T09:46:17.050Z,37.81
2018-05-03T09:47:17.088Z,37.51
2018-05-03T09:48:17.075Z,38.39
2018-05-03T09:49:17.147Z,37.02
2018-05-03T09:50:17.114Z,37.02
2018-05-03T09:51:17.147Z,36.95
2018-05-03T09:52:17.161Z,36.89
2018-05-03T09:53:17.164Z,35.08
2018-05-03T09:54:17.228Z,34.86
2018-05-03T09:55:17.215Z,35.24
2018-05-03T09:56:17.232Z,35.52
2018-05-03T09:57:17.282Z,35.71
2018-05-03T09:58:17.268Z,36.77
2018-05-03T09:59:17.299Z,36.47
2018-05-03T10:00:17.315Z,35.99
2018-05-03T10:01:17.420Z,36.64
2018-05-03T10:02:17.363Z,36.85
2018-05-03T10:03:17.429Z,35.62
2018-05-03T10:04:17.406Z,35.16
2018-05-03T10:05:17.427Z,34.59
2018-05-03T10:06:17.444Z,33.33
2018-05-03T10:07:17.494Z,35.30
2018-05-03T10:08:17.490Z,36.27
2018-05-03T10:09:17.593Z,36.56
2018-05-03T10:10:17.612Z,35.68
2018-05-03T10:11:17.561Z,37.68
2018-05-03T10:12:17.631Z,38.09
2018-05-03T10:13:17.654Z,38.16
2018-05-03T10:14:17.625Z,37.32
2018-05-03T10:15:17.641Z,35.68
2018-05-03T10:16:17.676Z,34.94
2018-05-03T10:17:17.715Z,35.00
2018-05-03T10:18:17.713Z,35.39
2018-05-03T10:19:17.746Z,36.45
2018-05-03T10:20:17.752Z,36.56
2018-05-03T10:21:17.774Z,37.34
2018-05-03T10:22:17.854Z,37.14
2018-05-03T10:23:17.823Z,37.06
2018-05-03T10:24:17.908Z,35.52
2018-05-03T10:25:17.996Z,35.91
2018-05-03T10:26:17.881Z,35.93
2018-05-03T10:27:17.907Z,35.46
2018-05-03T10:28:17.964Z,35.94
2018-05-03T10:29:17.947Z,37.18
2018-05-03T10:30:18.081Z,36.95
2018-05-03T10:31:18.017Z,37.83
2018-05-03T10:32:18.012Z,36.77
2018-05-03T10:33:18.040Z,37.04
2018-05-03T10:34:18.052Z,36.56
2018-05-03T10:35:18.083Z,35.42
2018-05-03T10:36:18.162Z,35.91
2018-05-03T10:37:18.137Z,35.64
2018-05-03T10:38:18.166Z,36.89
2018-05-03T10:39:18.174Z,35.27
2018-05-03T10:40:18.199Z,34.52
2018-05-03T10:41:18.212Z,35.17
2018-05-03T10:42:18.317Z,35.06
2018-05-03T10:43:18.279Z,35.36
2018-05-03T10:44:18.299Z,35.08
2018-05-03T10:45:18.303Z,35.08
2018-05-03T10:46:18.343Z,34.69
2018-05-03T10:47:18.340Z,35.36
2018-05-03T10:48:18.376Z,35.08
2018-05-03T10:49:18.460Z,35.36
2018-05-03T10:50:18.451Z,34.40
2018-05-03T10:51:18.441Z,34.59
2018-05-03T10:52:18.455Z,33.53
2018-05-03T10:53:18.485Z,33.26
2018-05-03T10:54:18.497Z,33.03
2018-05-03T10:55:18.526Z,33.44
2018-05-03T10:56:18.548Z,32.87
2018-05-03T10:57:18.564Z,33.65
2018-05-03T10:58:18.594Z,34.69
2018-05-03T10:59:18.617Z,34.40
2018-05-03T11:00:18.638Z,33.36
2018-05-03T11:01:18.703Z,34.30
2018-05-03T11:02:18.677Z,35.17
2018-05-03T11:03:18.733Z,35.85
2018-05-03T11:04:18.829Z,36.58
2018-05-03T11:05:18.837Z,36.77
2018-05-03T11:06:18.790Z,35.71
2018-05-03T11:07:18.787Z,35.16
2018-05-03T11:08:18.822Z,34.48
2018-05-03T11:09:18.835Z,34.58
2018-05-03T11:10:18.880Z,34.38
2018-05-03T11:11:18.882Z,33.51
2018-05-03T11:12:18.905Z,33.15
2018-05-03T11:13:18.970Z,33.25
2018-05-03T11:14:18.979Z,33.15
2018-05-03T11:15:19.006Z,33.13
2018-05-03T11:16:18.994Z,33.33
2018-05-03T11:17:19.016Z,33.23
2018-05-03T11:18:19.037Z,32.07
2018-05-03T11:19:19.132Z,32.28
2018-05-03T11:20:19.078Z,30.82
2018-05-03T11:21:19.102Z,32.14
2018-05-03T11:22:19.133Z,32.94
2018-05-03T11:23:19.148Z,31.98
2018-05-03T11:24:19.168Z,31.40
2018-05-03T11:25:19.193Z,31.87
2018-05-03T11:26:19.219Z,31.19
2018-05-03T11:27:19.239Z,32.54
2018-05-03T11:28:19.271Z,33.21
2018-05-03T11:29:19.288Z,34.33
2018-05-03T11:30:19.312Z,34.45
2018-05-03T11:31:19.331Z,35.38
2018-05-03T11:32:19.353Z,35.08
2018-05-03T11:33:19.397Z,35.08
2018-05-03T11:34:19.391Z,34.89
2018-05-03T11:35:19.457Z,34.53
2018-05-03T11:36:19.438Z,34.14
2018-05-03T11:37:19.455Z,33.37
2018-05-03T11:38:19.480Z,33.39
2018-05-03T11:39:19.504Z,34.17
2018-05-03T11:40:19.526Z,33.89
2018-05-03T11:41:19.554Z,31.95
2018-05-03T11:42:19.574Z,32.71
2018-05-03T11:43:19.624Z,33.79
2018-05-03T11:44:19.607Z,33.89
2018-05-03T11:45:19.698Z,32.54
2018-05-03T11:46:19.657Z,32.43
2018-05-03T11:47:19.675Z,33.75
2018-05-03T11:48:19.689Z,34.33
2018-05-03T11:49:19.727Z,34.74
2018-05-03T11:50:19.775Z,33.97
2018-05-03T11:51:19.765Z,34.92
2018-05-03T11:52:19.781Z,34.94
2018-05-03T11:53:19.799Z,35.33
2018-05-03T11:54:19.827Z,35.33
2018-05-03T11:55:19.869Z,34.86
2018-05-03T11:56:19.930Z,33.44
2018-05-03T11:57:19.930Z,33.33
2018-05-03T11:58:19.993Z,33.33
2018-05-03T11:59:19.954Z,33.13
2018-05-03T12:00:19.971Z,33.79
2018-05-03T12:01:20.028Z,34.08
2018-05-03T12:02:20.078Z,35.44
2018-05-03T12:03:20.077Z,34.58
2018-05-03T12:04:20.122Z,34.50
2018-05-03T12:05:20.067Z,34.29
2018-05-03T12:06:20.094Z,34.56
2018-05-03T12:07:20.156Z,33.98
2018-05-03T12:08:20.267Z,33.50
2018-05-03T12:09:20.157Z,33.50
2018-05-03T12:10:20.230Z,33.59
2018-05-03T12:11:20.234Z,32.92
2018-05-03T12:12:20.239Z,33.20
2018-05-03T12:13:20.255Z,33.50
2018-05-03T12:14:20.308Z,34.08
2018-05-03T12:15:20.285Z,34.56
2018-05-03T12:16:20.312Z,33.40
2018-05-03T12:17:20.354Z,33.77
2018-05-03T12:18:20.404Z,34.56
2018-05-03T12:19:20.376Z,34.91
2018-05-03T12:20:20.409Z,34.92
2018-05-03T12:21:20.465Z,34.64
2018-05-03T12:22:20.433Z,34.35
2018-05-03T12:23:20.512Z,33.89
2018-05-03T12:24:20.516Z,33.59
2018-05-03T12:25:20.519Z,33.69
2018-05-03T12:26:20.610Z,32.90
2018-05-03T12:27:20.563Z,34.54
2018-05-03T12:28:20.581Z,33.59
2018-05-03T12:29:20.604Z,32.64
2018-05-03T12:30:20.637Z,32.25
2018-05-03T12:31:20.645Z,31.95
2018-05-03T12:32:20.667Z,32.73
2018-05-03T12:33:20.686Z,32.90
2018-05-03T12:34:20.711Z,33.29
2018-05-03T12:35:20.748Z,33.00
2018-05-03T12:36:20.753Z,32.92
2018-05-03T12:37:20.772Z,31.69
2018-05-03T12:38:20.838Z,31.21
2018-05-03T12:39:20.875Z,30.82
2018-05-03T12:40:20.838Z,30.93
2018-05-03T12:41:20.861Z,30.55
2018-05-03T12:42:20.913Z,29.57
2018-05-03T12:43:20.925Z,30.42
2018-05-03T12:44:20.926Z,30.61
2018-05-03T12:45:20.980Z,31.01
2018-05-03T12:46:20.961Z,30.63
2018-05-03T12:47:20.990Z,31.88
2018-05-03T12:48:21.028Z,31.11
2018-05-03T12:49:21.087Z,31.01
2018-05-03T12:50:21.067Z,31.59
2018-05-03T12:51:21.088Z,31.98
2018-05-03T12:52:21.092Z,32.15